createdAt,value
2022-12-03T00:16:52.683Z,38.33
2022-12-03T00:19:31.329Z,41.08
2022-12-03T00:22:02.046Z,39.17
2022-12-03T00:24:34.637Z,37.03
2022-12-03T00:29:57.115Z,40.05
2022-12-03T00:32:24.015Z,41.55
2022-12-03T00:34:50.702Z,39.78
2022-12-03T00:37:17.402Z,42.55
2022-12-03T00:39:43.950Z,41.90
2022-12-03T00:42:10.658Z,42.42
2022-12-03T00:48:29.849Z,45.08
2022-12-03T00:50:56.398Z,41.72
2022-12-03T00:53:22.920Z,46.20
2022-12-03T00:55:50.698Z,43.22
2022-12-03T00:58:18.049Z,45.55
2022-12-03T01:00:44.657Z,38.78
2022-12-03T01:03:11.318Z,43.95
2022-12-03T01:05:37.940Z,40.65
2022-12-03T01:08:04.753Z,40.15
2022-12-03T01:10:31.427Z,39.97
2022-12-03T01:12:57.946Z,41.15
2022-12-03T01:15:24.493Z,42.90
2022-12-03T01:17:51.017Z,40.75
2022-12-03T01:20:17.713Z,41.80
2022-12-03T01:22:44.869Z,41.58
2022-12-03T01:25:11.571Z,40.00
2022-12-03T01:27:38.144Z,42.20
2022-12-03T01:30:05.952Z,42.92
2022-12-03T01:32:32.538Z,40.58
2022-12-03T01:34:59.128Z,41.47
2022-12-03T01:37:26.747Z,43.20
2022-12-03T01:39:53.699Z,44.45
2022-12-03T01:42:30.213Z,42.13
2022-12-03T01:44:59.077Z,38.53
2022-12-03T01:47:30.867Z,44.05
2022-12-03T01:50:30.160Z,41.45
2022-12-03T01:53:00.089Z,38.72
2022-12-03T01:55:26.828Z,38.65
2022-12-03T01:57:57.287Z,38.97
2022-12-03T02:00:29.279Z,42.88
2022-12-03T02:03:07.401Z,40.08
2022-12-03T02:05:34.513Z,41.60
2022-12-03T02:08:01.308Z,43.72
2022-12-03T02:10:33.542Z,44.38
2022-12-03T02:13:05.085Z,43.90
2022-12-03T02:15:31.841Z,42.90
2022-12-03T02:17:59.758Z,40.50
2022-12-03T02:20:26.666Z,44.58
2022-12-03T02:22:53.128Z,46.85
2022-12-03T02:25:23.135Z,44.95
2022-12-03T02:27:50.957Z,38.10
2022-12-03T02:30:20.819Z,38.15
2022-12-03T02:32:48.993Z,42.00
2022-12-03T02:35:18.460Z,40.60
2022-12-03T02:37:47.667Z,40.53
2022-12-03T02:40:19.898Z,42.00
2022-12-03T02:42:47.713Z,39.90
2022-12-03T02:45:22.592Z,35.83
2022-12-03T02:47:52.718Z,38.17
2022-12-03T02:50:24.064Z,38.38
2022-12-03T02:52:53.355Z,39.20
2022-12-03T02:55:20.899Z,40.97
2022-12-03T02:57:50.156Z,40.25
2022-12-03T03:00:17.847Z,38.55
2022-12-03T03:19:38.270Z,39.80
2022-12-03T03:22:04.906Z,39.33
2022-12-03T03:24:32.536Z,38.70
2022-12-03T03:26:59.148Z,39.47
2022-12-03T03:29:25.765Z,41.25
2022-12-03T03:31:52.481Z,40.50
2022-12-03T03:34:19.088Z,40.05
2022-12-03T03:36:46.596Z,43.10
2022-12-03T03:39:13.943Z,38.22
2022-12-03T03:41:41.197Z,36.15
2022-12-03T03:44:08.929Z,38.80
2022-12-03T03:46:37.048Z,36.22
2022-12-03T03:49:05.690Z,39.65
2022-12-03T03:51:34.646Z,38.88
2022-12-03T03:54:03.956Z,40.47
2022-12-03T03:56:30.700Z,40.35
2022-12-03T03:58:57.262Z,43.35
2022-12-03T04:01:24.371Z,39.47
2022-12-03T04:03:50.993Z,40.08
2022-12-03T04:06:17.789Z,40.42
2022-12-03T04:08:44.478Z,38.13
2022-12-03T04:11:29.612Z,39.15
2022-12-03T04:13:56.139Z,43.40
2022-12-03T04:16:22.710Z,39.20
2022-12-03T04:18:49.365Z,39.67
2022-12-03T04:21:36.857Z,43.63
2022-12-03T04:24:04.366Z,40.90
2022-12-03T04:26:49.619Z,44.22
2022-12-03T04:29:16.239Z,42.33
2022-12-03T04:32:23.523Z,43.38
2022-12-03T04:35:08.869Z,46.03
2022-12-03T04:37:35.873Z,44.55
2022-12-03T04:40:02.407Z,46.97
2022-12-03T04:46:47.508Z,46.97
2022-12-03T04:49:14.035Z,43.03
2022-12-03T04:51:40.594Z,47.60
2022-12-03T04:54:11.613Z,45.63
2022-12-03T04:56:38.202Z,47.62
2022-12-03T04:59:04.917Z,48.35
2022-12-03T05:01:31.576Z,45.45
2022-12-03T05:03:58.385Z,48.05
2022-12-03T05:06:24.984Z,44.63
2022-12-03T05:08:51.530Z,50.53
2022-12-03T05:11:18.403Z,49.08
2022-12-03T05:13:44.923Z,49.13
2022-12-03T05:16:11.476Z,49.42
2022-12-03T05:18:38.152Z,58.67
2022-12-03T05:21:04.762Z,62.70
2022-12-03T05:23:31.359Z,50.15
2022-12-03T05:25:57.902Z,49.33
2022-12-03T05:28:24.506Z,50.63
2022-12-03T05:30:52.052Z,46.40
2022-12-03T05:33:18.696Z,49.33
2022-12-03T05:35:45.237Z,44.72
2022-12-03T05:38:11.840Z,49.38
2022-12-03T05:40:38.441Z,49.45
2022-12-03T05:43:05.169Z,47.45
2022-12-03T05:45:35.582Z,47.28
2022-12-03T05:48:03.646Z,47.67
2022-12-03T05:50:33.399Z,47.40
2022-12-03T05:53:00.388Z,44.53
2022-12-03T05:55:27.927Z,46.75
2022-12-03T05:57:54.711Z,49.95
2022-12-03T06:00:26.480Z,51.80
2022-12-03T06:02:54.284Z,45.47
2022-12-03T06:05:21.862Z,44.38
2022-12-03T06:07:50.072Z,45.70
2022-12-03T06:10:22.650Z,41.47
2022-12-03T06:12:49.654Z,43.17
2022-12-03T06:15:16.708Z,42.60
2022-12-03T06:17:43.291Z,45.17
2022-12-03T06:20:14.154Z,44.67
2022-12-03T06:22:40.823Z,51.05
2022-12-03T06:25:10.069Z,49.25
2022-12-03T06:27:36.836Z,49.22
2022-12-03T06:30:05.273Z,47.22
2022-12-03T06:32:31.878Z,50.75
2022-12-03T06:34:58.447Z,55.12
2022-12-03T06:37:25.040Z,49.53
2022-12-03T06:39:51.581Z,52.50
2022-12-03T06:42:18.162Z,48.83
2022-12-03T06:44:44.692Z,50.90
2022-12-03T06:47:11.276Z,48.47
2022-12-03T06:49:37.976Z,47.58
2022-12-03T06:52:04.639Z,44.55
2022-12-03T06:54:31.307Z,40.12
2022-12-03T06:56:57.871Z,41.83
2022-12-03T06:59:24.436Z,43.47
2022-12-03T07:01:51.040Z,40.80
2022-12-03T07:04:17.643Z,44.67
2022-12-03T07:06:44.241Z,42.05
2022-12-03T07:09:10.942Z,42.45
2022-12-03T07:11:40.776Z,45.92
2022-12-03T07:14:09.160Z,43.58
2022-12-03T07:16:36.172Z,42.70
2022-12-03T07:19:05.247Z,39.92
2022-12-03T07:21:32.263Z,45.42
2022-12-03T07:23:58.809Z,45.20
2022-12-03T07:26:25.368Z,36.53
2022-12-03T07:31:35.723Z,41.10
2022-12-03T07:34:02.351Z,47.30
2022-12-03T07:36:28.939Z,46.40
2022-12-03T07:38:55.517Z,46.53
2022-12-03T07:41:27.004Z,42.88
2022-12-03T07:43:53.579Z,48.15
2022-12-03T07:46:20.213Z,44.00
2022-12-03T07:54:31.570Z,43.75
2022-12-03T07:57:01.967Z,41.97
2022-12-03T08:00:00.239Z,43.30
2022-12-03T08:02:46.889Z,42.33
2022-12-03T08:05:14.132Z,42.30
2022-12-03T08:07:41.206Z,42.88
2022-12-03T08:10:08.008Z,44.42
2022-12-03T08:12:41.241Z,43.28
2022-12-03T08:15:18.867Z,48.45
2022-12-03T08:17:51.066Z,46.20
2022-12-03T08:23:21.630Z,44.90
2022-12-03T08:25:51.539Z,49.58
2022-12-03T08:28:19.622Z,52.55
2022-12-03T08:34:06.920Z,44.80
2022-12-03T08:36:33.804Z,45.55
2022-12-03T08:39:05.562Z,54.25
2022-12-03T08:42:14.188Z,49.03
2022-12-03T08:44:41.208Z,54.55
2022-12-03T08:49:50.488Z,58.87
2022-12-03T08:52:20.902Z,65.78
2022-12-03T08:54:54.423Z,58.00
2022-12-03T08:57:28.540Z,51.88
2022-12-03T09:00:16.889Z,52.78
2022-12-03T09:02:49.800Z,51.72
2022-12-03T09:05:21.103Z,47.05
2022-12-03T09:07:47.782Z,46.10
2022-12-03T09:10:14.842Z,52.08
2022-12-03T09:12:41.407Z,48.35
2022-12-03T09:15:08.430Z,50.42
2022-12-03T09:17:35.005Z,46.88
2022-12-03T09:20:01.769Z,43.38
2022-12-03T09:22:31.795Z,47.03
2022-12-03T09:24:58.351Z,45.95
2022-12-03T09:27:24.914Z,43.05
2022-12-03T09:29:51.524Z,43.45
2022-12-03T09:32:18.966Z,49.08
2022-12-03T09:34:46.459Z,49.95
2022-12-03T09:37:13.014Z,58.33
2022-12-03T09:39:39.764Z,40.30
2022-12-03T09:42:06.340Z,52.35
2022-12-03T09:44:34.450Z,54.35
2022-12-03T09:47:02.717Z,46.13
2022-12-03T09:49:31.987Z,39.75
2022-12-03T09:52:01.815Z,49.10
2022-12-03T09:54:30.168Z,46.92
2022-12-03T09:56:59.324Z,48.87
2022-12-03T09:59:31.436Z,37.38
2022-12-03T10:01:58.370Z,41.67
2022-12-03T10:04:28.433Z,43.85
2022-12-03T10:06:57.440Z,44.60
2022-12-03T10:09:27.245Z,60.90
2022-12-03T10:11:56.530Z,47.85
2022-12-03T10:14:23.287Z,46.60
2022-12-03T10:19:39.642Z,36.17
2022-12-03T10:22:06.223Z,40.12
2022-12-03T10:24:42.635Z,35.35
2022-12-03T10:30:34.618Z,35.72
2022-12-03T10:33:18.497Z,32.47
2022-12-03T10:35:45.541Z,41.00
2022-12-03T10:38:17.952Z,31.45
2022-12-03T10:40:45.224Z,35.60
2022-12-03T10:43:17.839Z,32.85
2022-12-03T10:45:49.144Z,36.78
2022-12-03T10:48:29.855Z,29.87
2022-12-03T10:51:04.804Z,34.33
2022-12-03T10:53:36.130Z,34.08
2022-12-03T10:56:06.432Z,34.50
2022-12-03T11:03:44.720Z,31.83
2022-12-03T11:06:16.412Z,30.95
2022-12-03T11:08:43.863Z,28.15
2022-12-03T11:11:18.852Z,29.83
2022-12-03T11:13:47.081Z,30.55
2022-12-03T11:16:44.491Z,30.50
2022-12-03T11:19:38.175Z,29.35
2022-12-03T11:22:09.653Z,26.92
2022-12-03T11:24:38.163Z,31.98
2022-12-03T11:27:29.204Z,31.45
2022-12-03T11:30:56.561Z,34.65
2022-12-03T11:33:28.848Z,29.42
2022-12-03T11:36:04.652Z,33.00
2022-12-03T11:38:52.416Z,36.28
2022-12-03T11:41:30.671Z,30.95
2022-12-03T11:44:00.061Z,29.55
2022-12-03T11:46:46.261Z,27.83
2022-12-03T11:49:46.473Z,29.85
2022-12-03T11:52:23.957Z,31.52
2022-12-03T11:55:19.215Z,29.10
2022-12-03T11:58:58.562Z,31.50
2022-12-03T12:01:45.233Z,32.72
2022-12-03T12:04:28.701Z,30.73
2022-12-03T12:06:55.461Z,31.15
2022-12-03T12:09:50.910Z,27.85
2022-12-03T12:12:21.027Z,27.27
2022-12-03T12:17:36.792Z,32.92
2022-12-03T12:20:24.591Z,24.20
2022-12-03T12:22:53.339Z,25.02
2022-12-03T12:25:59.951Z,22.85
2022-12-03T12:29:16.286Z,22.83
2022-12-03T12:31:59.523Z,23.62
2022-12-03T12:39:35.901Z,26.70
2022-12-03T12:42:22.415Z,29.12
2022-12-03T12:45:13.926Z,30.80
2022-12-03T12:47:59.578Z,24.67
2022-12-03T12:50:26.211Z,27.75
2022-12-03T12:52:56.909Z,30.77
2022-12-03T12:56:38.615Z,28.23
2022-12-03T12:59:33.178Z,28.20
2022-12-03T13:02:00.666Z,29.45
2022-12-03T13:04:30.589Z,28.55
2022-12-03T13:06:57.143Z,27.80
2022-12-03T13:09:25.975Z,25.40
2022-12-03T13:11:55.777Z,26.50
2022-12-03T13:14:45.234Z,27.50
2022-12-03T13:17:29.873Z,26.98
2022-12-03T13:20:06.763Z,29.75
2022-12-03T13:22:34.455Z,26.08
2022-12-03T13:26:09.276Z,28.00
2022-12-03T13:29:24.761Z,27.73
2022-12-03T13:34:47.566Z,29.17
2022-12-03T13:37:19.420Z,26.12
2022-12-03T13:39:50.439Z,24.45
2022-12-03T13:42:35.793Z,27.33
2022-12-03T13:45:03.570Z,28.05
2022-12-03T13:47:30.090Z,22.05
2022-12-03T13:50:03.624Z,27.42
2022-12-03T13:52:34.656Z,27.35
2022-12-03T13:55:02.629Z,26.85
2022-12-03T13:57:29.158Z,24.55
2022-12-03T13:59:57.101Z,23.62
2022-12-03T14:02:23.846Z,22.92
2022-12-03T14:04:54.100Z,25.65
2022-12-03T14:09:50.215Z,23.40
2022-12-03T14:12:25.719Z,23.87
2022-12-03T14:14:52.933Z,26.60
2022-12-03T14:17:19.651Z,25.80
2022-12-03T14:19:46.205Z,24.83
2022-12-03T14:22:12.807Z,29.25
2022-12-03T14:24:42.712Z,27.27
2022-12-03T14:27:11.431Z,25.67
2022-12-03T14:29:44.764Z,25.67
2022-12-03T14:32:11.403Z,29.90
2022-12-03T14:34:37.993Z,25.08
2022-12-03T14:37:05.159Z,27.10
2022-12-03T14:39:31.749Z,27.60
2022-12-03T14:42:13.383Z,26.98
2022-12-03T14:44:41.104Z,26.35
2022-12-03T14:47:07.993Z,24.67
2022-12-03T14:49:34.994Z,28.40
2022-12-03T14:52:02.148Z,27.33
2022-12-03T14:54:28.779Z,26.35
2022-12-03T14:56:55.442Z,25.52
2022-12-03T14:59:27.355Z,27.50
2022-12-03T15:01:54.753Z,28.70
2022-12-03T15:04:21.518Z,24.37
2022-12-03T15:06:48.069Z,25.25
2022-12-03T15:09:14.722Z,28.33
2022-12-03T15:11:45.920Z,23.40
2022-12-03T15:14:13.034Z,25.17
2022-12-03T15:16:40.074Z,28.38
2022-12-03T15:19:06.818Z,27.52
2022-12-03T15:21:34.943Z,28.08
2022-12-03T15:24:02.565Z,30.40
2022-12-03T15:26:29.993Z,28.73
2022-12-03T15:28:56.545Z,26.30
2022-12-03T15:31:23.237Z,29.65
2022-12-03T15:33:49.893Z,26.98
2022-12-03T15:36:16.832Z,27.52
2022-12-03T15:38:43.413Z,29.48
2022-12-03T15:41:24.782Z,29.10
2022-12-03T15:43:52.629Z,28.60
2022-12-03T15:46:20.019Z,28.92
2022-12-03T15:48:47.100Z,28.92
2022-12-03T15:51:13.819Z,32.15
2022-12-03T15:53:41.079Z,31.02
2022-12-03T15:56:07.897Z,30.00
2022-12-03T15:58:35.099Z,30.70
2022-12-03T16:01:01.781Z,32.85
2022-12-03T16:03:28.471Z,33.03
2022-12-03T16:05:55.150Z,31.98
2022-12-03T16:08:21.821Z,33.40
2022-12-03T16:10:49.532Z,33.58
2022-12-03T16:13:16.198Z,31.25
2022-12-03T16:15:43.024Z,31.83
2022-12-03T16:18:09.592Z,31.05
2022-12-03T16:20:36.160Z,30.33
2022-12-03T16:23:02.738Z,31.85
2022-12-03T16:25:29.312Z,30.62
2022-12-03T16:27:56.563Z,27.87
2022-12-03T16:30:24.718Z,29.52
2022-12-03T16:32:51.616Z,28.70
2022-12-03T16:35:18.323Z,28.70
2022-12-03T16:37:44.902Z,32.35
2022-12-03T16:40:12.163Z,33.83
2022-12-03T16:42:39.090Z,33.10
2022-12-03T16:45:09.055Z,34.13
2022-12-03T16:47:38.710Z,40.80
2022-12-03T16:50:07.883Z,37.53
2022-12-03T16:52:35.223Z,34.58
2022-12-03T16:55:02.089Z,34.25
2022-12-03T16:57:33.665Z,31.37
2022-12-03T17:00:01.060Z,34.03
2022-12-03T17:02:27.952Z,35.95
2022-12-03T17:04:54.825Z,33.95
2022-12-03T17:07:21.447Z,35.97
2022-12-03T17:09:48.078Z,39.72
2022-12-03T17:12:14.839Z,36.75
2022-12-03T17:14:41.367Z,37.78
2022-12-03T17:17:07.993Z,37.17
2022-12-03T17:19:34.596Z,37.72
2022-12-03T17:22:01.258Z,38.70
2022-12-03T17:24:28.036Z,37.97
2022-12-03T17:26:54.576Z,37.42
2022-12-03T17:29:21.313Z,35.13
2022-12-03T17:31:48.017Z,36.85
2022-12-03T17:34:14.992Z,36.70
2022-12-03T17:36:41.547Z,39.83
2022-12-03T17:39:08.091Z,38.13
2022-12-03T17:41:34.646Z,35.10
2022-12-03T17:44:03.624Z,37.70
2022-12-03T17:46:33.989Z,38.03
2022-12-03T17:49:00.678Z,37.72
2022-12-03T17:51:27.264Z,36.70
2022-12-03T17:53:53.823Z,36.05
2022-12-03T17:56:20.740Z,36.65
2022-12-03T17:58:47.368Z,38.45
2022-12-03T18:01:14.087Z,38.63
2022-12-03T18:03:40.704Z,38.88
2022-12-03T18:06:07.652Z,39.30
2022-12-03T18:08:34.232Z,40.55
2022-12-03T18:11:01.005Z,41.58
2022-12-03T18:13:28.164Z,37.22
2022-12-03T18:15:54.933Z,39.53
2022-12-03T18:18:21.527Z,41.33
2022-12-03T18:20:48.178Z,42.47
2022-12-03T18:23:14.795Z,38.92
2022-12-03T18:25:42.090Z,40.60
2022-12-03T18:28:08.644Z,43.72
2022-12-03T18:30:35.218Z,42.75
2022-12-03T18:33:01.805Z,43.90
2022-12-03T18:35:37.306Z,45.70
2022-12-03T18:38:03.970Z,46.37
2022-12-03T18:40:30.885Z,45.75
2022-12-03T18:42:57.443Z,46.85
2022-12-03T18:45:24.077Z,46.08
2022-12-03T18:47:50.733Z,46.58
2022-12-03T18:50:17.580Z,43.85
2022-12-03T18:52:44.174Z,45.75
2022-12-03T18:55:18.555Z,43.95
2022-12-03T18:57:45.616Z,43.38
2022-12-03T19:00:13.853Z,35.45
2022-12-03T19:05:27.312Z,40.75
2022-12-03T19:07:55.596Z,40.83
2022-12-03T19:10:22.640Z,45.53
2022-12-03T19:12:49.377Z,53.22
2022-12-03T19:15:16.572Z,44.90
2022-12-03T19:17:47.311Z,45.50
2022-12-03T19:20:13.931Z,43.78
2022-12-03T19:22:40.447Z,46.47
2022-12-03T19:25:07.181Z,44.08
2022-12-03T19:27:33.801Z,43.83
2022-12-03T19:30:00.355Z,44.08
2022-12-03T19:32:26.987Z,45.90
2022-12-03T19:34:53.572Z,44.03
2022-12-03T19:37:20.111Z,42.95
2022-12-03T19:39:46.922Z,45.38
2022-12-03T19:42:13.480Z,45.80
2022-12-03T19:44:39.983Z,40.30
2022-12-03T19:47:06.681Z,47.65
2022-12-03T19:49:33.301Z,42.22
2022-12-03T19:51:59.918Z,42.55
2022-12-03T19:54:26.460Z,43.42
2022-12-03T19:56:53.039Z,43.55
2022-12-03T19:59:19.562Z,43.80
2022-12-03T20:01:46.306Z,40.00
2022-12-03T20:04:13.670Z,43.87
2022-12-03T20:06:40.454Z,43.33
2022-12-03T20:09:13.080Z,41.60
2022-12-03T20:11:41.148Z,41.67
2022-12-03T20:14:10.742Z,43.42
2022-12-03T20:16:37.564Z,44.85
2022-12-03T20:19:07.086Z,42.10
2022-12-03T20:21:36.576Z,41.08
2022-12-03T20:24:04.642Z,41.60
2022-12-03T20:26:31.451Z,43.80
2022-12-03T20:28:58.148Z,44.47
2022-12-03T20:31:30.083Z,39.83
2022-12-03T20:33:59.471Z,42.13
2022-12-03T20:36:27.051Z,40.63
2022-12-03T20:38:55.064Z,41.55
2022-12-03T20:41:21.851Z,38.90
2022-12-03T20:43:48.558Z,38.58
2022-12-03T20:46:24.014Z,37.00
2022-12-03T20:48:50.882Z,40.63
2022-12-03T20:51:20.863Z,40.97
2022-12-03T20:53:47.483Z,40.58
2022-12-03T20:56:26.170Z,39.60
2022-12-03T20:58:53.548Z,40.70
2022-12-03T21:01:29.325Z,39.55
2022-12-03T21:03:57.000Z,44.92
2022-12-03T21:06:42.013Z,41.05
2022-12-03T21:09:09.765Z,43.70
2022-12-03T21:11:39.080Z,41.58
2022-12-03T21:14:05.870Z,41.42
2022-12-03T21:19:22.662Z,42.15
2022-12-03T21:21:50.043Z,42.78
2022-12-03T21:24:16.913Z,43.33
2022-12-03T21:26:43.459Z,46.90
2022-12-03T21:29:10.291Z,42.83
2022-12-03T21:31:38.417Z,40.53
2022-12-03T21:34:05.254Z,45.95
2022-12-03T21:36:32.318Z,42.80
2022-12-03T21:39:13.930Z,45.50
2022-12-03T21:41:40.615Z,45.83
2022-12-03T21:44:27.148Z,42.40
2022-12-03T21:47:11.762Z,45.17
2022-12-03T21:49:40.167Z,38.45
2022-12-03T21:52:06.695Z,42.55
2022-12-03T21:54:33.223Z,37.47
2022-12-03T21:56:59.769Z,45.40
2022-12-03T21:59:41.401Z,42.83
2022-12-03T22:02:09.593Z,39.85
2022-12-03T22:04:36.371Z,41.17
2022-12-03T22:07:06.039Z,42.47
2022-12-03T22:09:54.880Z,42.00
2022-12-03T22:15:42.132Z,40.60
2022-12-03T22:18:08.718Z,43.25
2022-12-03T22:20:35.281Z,44.67
2022-12-03T22:25:37.061Z,46.22
2022-12-03T22:28:03.793Z,42.30
2022-12-03T22:30:30.382Z,44.65
2022-12-03T22:32:56.951Z,42.28
2022-12-03T22:35:23.474Z,44.35
2022-12-03T22:37:50.024Z,38.83
2022-12-03T22:40:35.077Z,44.65
2022-12-03T22:43:20.701Z,45.78
2022-12-03T22:45:47.365Z,43.78
2022-12-03T22:48:15.053Z,40.70
2022-12-03T22:50:45.656Z,46.37
2022-12-03T22:53:13.286Z,43.00
2022-12-03T22:55:40.595Z,40.97
2022-12-03T23:00:49.849Z,40.75
2022-12-03T23:03:16.396Z,45.28
2022-12-03T23:05:43.094Z,41.08
2022-12-03T23:08:12.960Z,41.88
2022-12-03T23:10:42.371Z,42.22
2022-12-03T23:13:33.915Z,45.78
2022-12-03T23:19:59.481Z,42.10
2022-12-03T23:22:26.053Z,43.13
2022-12-03T23:24:52.581Z,43.25
2022-12-03T23:27:19.117Z,42.15
2022-12-03T23:30:00.883Z,43.45
2022-12-03T23:32:27.432Z,44.95
2022-12-03T23:34:54.084Z,43.70
2022-12-03T23:37:20.625Z,45.83
2022-12-03T23:39:50.030Z,44.13
2022-12-03T23:42:16.559Z,46.42
2022-12-03T23:44:52.082Z,43.33
2022-12-03T23:47:18.665Z,43.47
2022-12-03T23:49:45.284Z,43.20
2022-12-03T23:52:11.889Z,38.20
2022-12-03T23:55:03.527Z,44.42
2022-12-03T23:57:57.580Z,43.03
